YPMQ

Details ICAO YPMQ (PQQ)
Name Port Macquarie Airport
Region Australia
Timezone Australia/Sydney (UTC+10.0)
Plans Departing 97
Arriving 69
Stats Elevation 15 ft / 5 m (AMSL)
Location -31.435900° 152.862000°
Runways 1
Magnetic Variation 12.239° E
Sunrise 2019-05-20 20:33:46 UTC / 2019-05-21 06:33:46 Local
Sunset 2019-05-21 06:59:16 UTC / 2019-05-21 16:59:16 Local
Advertisement - Login to hide

Runways

ID Width Length Bearing (true/mag) Surface Threshold Overrun Markings Lighting
03 144 ft / 44 m 5,911 ft / 1,802 m 29.60° / 17.36° ASPHALT 0 ft / 0 m 66 ft / 20 m PREC-APP EDGE THRESHOLD
21 144 ft / 44 m 5,911 ft / 1,802 m 209.60° / 197.36° ASPHALT 0 ft / 0 m 69 ft / 21 m PREC-APP EDGE THRESHOLD

Map

Weather


0- 5 10 15 20 25 30 35+ Temperature / °C

Clouds and Precipitation
Forecast for 2019-05-21 00:00 UTC. Updated an hour ago

Ground ~20,000 ft ~40,000 ft Winds

METAR

YPMQ 202105Z AUTO 00000KT 9999 // NCD 12/11 Q1026

TAF

Not found

Frequencies

Unicom 118.10 MHz PORT MACQUARIE MULT
Warning: Do not use this data for real-world aviation or navigation. No guarantee of current accuracy is given.